sensor_id;sensor_type;location;lat;lon;timestamp;P1;durP1;ratioP1;P2;durP2;ratioP2
11931;SDS011;6025;51.368;6.788;2023-07-09T00:01:42;7.60;;;4.15;;
11931;SDS011;6025;51.368;6.788;2023-07-09T00:06:34;7.35;;;4.40;;
11931;SDS011;6025;51.368;6.788;2023-07-09T00:11:26;7.78;;;4.60;;
11931;SDS011;6025;51.368;6.788;2023-07-09T00:16:18;6.65;;;4.40;;
11931;SDS011;6025;51.368;6.788;2023-07-09T00:21:14;6.68;;;4.70;;
11931;SDS011;6025;51.368;6.788;2023-07-09T00:26:07;6.25;;;4.63;;
11931;SDS011;6025;51.368;6.788;2023-07-09T00:30:59;10.25;;;4.53;;
11931;SDS011;6025;51.368;6.788;2023-07-09T00:35:51;7.93;;;4.53;;
11931;SDS011;6025;51.368;6.788;2023-07-09T00:40:56;9.18;;;4.65;;
11931;SDS011;6025;51.368;6.788;2023-07-09T00:51:07;7.82;;;4.28;;
11931;SDS011;6025;51.368;6.788;2023-07-09T00:56:04;8.77;;;4.45;;
11931;SDS011;6025;51.368;6.788;2023-07-09T01:00:59;6.13;;;4.45;;
11931;SDS011;6025;51.368;6.788;2023-07-09T01:05:53;8.27;;;4.82;;
11931;SDS011;6025;51.368;6.788;2023-07-09T01:10:45;7.43;;;4.50;;
11931;SDS011;6025;51.368;6.788;2023-07-09T01:15:38;6.00;;;4.40;;
11931;SDS011;6025;51.368;6.788;2023-07-09T01:20:30;6.25;;;4.70;;
11931;SDS011;6025;51.368;6.788;2023-07-09T01:25:23;12.30;;;4.80;;
11931;SDS011;6025;51.368;6.788;2023-07-09T01:30:16;5.50;;;4.55;;
11931;SDS011;6025;51.368;6.788;2023-07-09T01:35:09;6.28;;;4.70;;
11931;SDS011;6025;51.368;6.788;2023-07-09T01:40:01;7.63;;;4.95;;
11931;SDS011;6025;51.368;6.788;2023-07-09T01:44:56;5.55;;;4.40;;
11931;SDS011;6025;51.368;6.788;2023-07-09T01:49:48;6.22;;;4.50;;
11931;SDS011;6025;51.368;6.788;2023-07-09T01:54:39;8.07;;;4.78;;
11931;SDS011;6025;51.368;6.788;2023-07-09T01:59:31;8.05;;;4.78;;
11931;SDS011;6025;51.368;6.788;2023-07-09T02:04:24;7.53;;;5.18;;
11931;SDS011;6025;51.368;6.788;2023-07-09T02:09:17;10.25;;;5.10;;
11931;SDS011;6025;51.368;6.788;2023-07-09T02:14:09;6.30;;;4.70;;
11931;SDS011;6025;51.368;6.788;2023-07-09T02:19:00;5.78;;;4.97;;
11931;SDS011;6025;51.368;6.788;2023-07-09T02:23:53;8.02;;;4.75;;
11931;SDS011;6025;51.368;6.788;2023-07-09T02:28:45;5.85;;;4.82;;
11931;SDS011;6025;51.368;6.788;2023-07-09T02:33:37;6.63;;;5.32;;
11931;SDS011;6025;51.368;6.788;2023-07-09T02:38:30;7.32;;;5.22;;
11931;SDS011;6025;51.368;6.788;2023-07-09T02:43:22;9.35;;;4.95;;
11931;SDS011;6025;51.368;6.788;2023-07-09T02:48:14;7.38;;;5.05;;
11931;SDS011;6025;51.368;6.788;2023-07-09T02:53:05;6.57;;;5.47;;
11931;SDS011;6025;51.368;6.788;2023-07-09T02:57:57;7.18;;;5.10;;
11931;SDS011;6025;51.368;6.788;2023-07-09T03:02:50;6.63;;;5.28;;
11931;SDS011;6025;51.368;6.788;2023-07-09T03:07:41;6.60;;;5.40;;
11931;SDS011;6025;51.368;6.788;2023-07-09T03:12:33;8.90;;;5.45;;
11931;SDS011;6025;51.368;6.788;2023-07-09T03:17:24;7.95;;;5.28;;
11931;SDS011;6025;51.368;6.788;2023-07-09T03:22:17;7.15;;;5.40;;
11931;SDS011;6025;51.368;6.788;2023-07-09T03:27:09;8.15;;;5.30;;
11931;SDS011;6025;51.368;6.788;2023-07-09T03:32:00;8.98;;;5.53;;
11931;SDS011;6025;51.368;6.788;2023-07-09T03:36:52;5.90;;;4.78;;
11931;SDS011;6025;51.368;6.788;2023-07-09T03:41:44;11.55;;;6.35;;
11931;SDS011;6025;51.368;6.788;2023-07-09T03:46:36;8.95;;;5.70;;
11931;SDS011;6025;51.368;6.788;2023-07-09T03:51:27;7.57;;;5.63;;
11931;SDS011;6025;51.368;6.788;2023-07-09T03:56:19;7.78;;;5.53;;
11931;SDS011;6025;51.368;6.788;2023-07-09T04:01:12;8.60;;;5.40;;
11931;SDS011;6025;51.368;6.788;2023-07-09T04:06:06;9.65;;;5.22;;
11931;SDS011;6025;51.368;6.788;2023-07-09T04:10:58;7.28;;;5.38;;
11931;SDS011;6025;51.368;6.788;2023-07-09T04:15:50;8.10;;;5.28;;
11931;SDS011;6025;51.368;6.788;2023-07-09T04:20:43;6.18;;;5.05;;
11931;SDS011;6025;51.368;6.788;2023-07-09T04:25:39;8.93;;;5.35;;
11931;SDS011;6025;51.368;6.788;2023-07-09T04:30:31;6.55;;;4.68;;
11931;SDS011;6025;51.368;6.788;2023-07-09T04:35:22;7.68;;;5.28;;
11931;SDS011;6025;51.368;6.788;2023-07-09T04:40:17;9.75;;;5.38;;
11931;SDS011;6025;51.368;6.788;2023-07-09T04:45:10;6.57;;;4.50;;
11931;SDS011;6025;51.368;6.788;2023-07-09T04:50:02;7.93;;;5.32;;
11931;SDS011;6025;51.368;6.788;2023-07-09T04:54:54;6.20;;;4.63;;
11931;SDS011;6025;51.368;6.788;2023-07-09T04:59:47;7.00;;;4.78;;
11931;SDS011;6025;51.368;6.788;2023-07-09T05:04:40;5.88;;;4.80;;
11931;SDS011;6025;51.368;6.788;2023-07-09T05:09:31;7.57;;;4.70;;
11931;SDS011;6025;51.368;6.788;2023-07-09T05:14:23;6.38;;;4.68;;
11931;SDS011;6025;51.368;6.788;2023-07-09T05:19:15;6.00;;;4.55;;
11931;SDS011;6025;51.368;6.788;2023-07-09T05:24:07;7.43;;;4.97;;
11931;SDS011;6025;51.368;6.788;2023-07-09T05:28:59;7.22;;;4.70;;
11931;SDS011;6025;51.368;6.788;2023-07-09T05:33:50;9.95;;;4.75;;
11931;SDS011;6025;51.368;6.788;2023-07-09T05:38:43;8.07;;;4.60;;
11931;SDS011;6025;51.368;6.788;2023-07-09T05:43:36;6.25;;;4.00;;
11931;SDS011;6025;51.368;6.788;2023-07-09T05:48:27;8.13;;;4.70;;
11931;SDS011;6025;51.368;6.788;2023-07-09T05:53:19;8.77;;;5.03;;
11931;SDS011;6025;51.368;6.788;2023-07-09T05:58:12;5.10;;;4.40;;
11931;SDS011;6025;51.368;6.788;2023-07-09T06:03:03;6.75;;;5.03;;
11931;SDS011;6025;51.368;6.788;2023-07-09T06:07:57;7.93;;;4.35;;
11931;SDS011;6025;51.368;6.788;2023-07-09T06:12:48;6.55;;;4.60;;
11931;SDS011;6025;51.368;6.788;2023-07-09T06:17:41;6.95;;;4.25;;
11931;SDS011;6025;51.368;6.788;2023-07-09T06:22:33;6.60;;;4.82;;
11931;SDS011;6025;51.368;6.788;2023-07-09T06:27:24;9.38;;;4.22;;
11931;SDS011;6025;51.368;6.788;2023-07-09T06:32:16;5.85;;;4.40;;
11931;SDS011;6025;51.368;6.788;2023-07-09T06:37:09;6.03;;;4.53;;
11931;SDS011;6025;51.368;6.788;2023-07-09T06:42:00;7.22;;;4.75;;
11931;SDS011;6025;51.368;6.788;2023-07-09T06:46:52;6.40;;;4.70;;
11931;SDS011;6025;51.368;6.788;2023-07-09T06:51:43;6.43;;;4.97;;
11931;SDS011;6025;51.368;6.788;2023-07-09T06:56:36;7.43;;;5.25;;
11931;SDS011;6025;51.368;6.788;2023-07-09T07:01:28;7.63;;;4.45;;
11931;SDS011;6025;51.368;6.788;2023-07-09T07:06:19;7.57;;;4.70;;
11931;SDS011;6025;51.368;6.788;2023-07-09T07:11:11;6.57;;;4.70;;
11931;SDS011;6025;51.368;6.788;2023-07-09T07:16:04;5.82;;;4.70;;
11931;SDS011;6025;51.368;6.788;2023-07-09T07:20:57;9.52;;;5.05;;
11931;SDS011;6025;51.368;6.788;2023-07-09T07:25:48;7.97;;;5.43;;
11931;SDS011;6025;51.368;6.788;2023-07-09T07:30:40;6.82;;;4.82;;
11931;SDS011;6025;51.368;6.788;2023-07-09T07:35:33;7.75;;;5.32;;
11931;SDS011;6025;51.368;6.788;2023-07-09T07:40:24;7.47;;;5.47;;
11931;SDS011;6025;51.368;6.788;2023-07-09T07:45:16;7.72;;;5.47;;
11931;SDS011;6025;51.368;6.788;2023-07-09T07:50:08;7.85;;;4.60;;
11931;SDS011;6025;51.368;6.788;2023-07-09T07:55:01;8.25;;;5.35;;
11931;SDS011;6025;51.368;6.788;2023-07-09T07:59:52;6.88;;;4.97;;
11931;SDS011;6025;51.368;6.788;2023-07-09T08:04:44;8.90;;;5.25;;
11931;SDS011;6025;51.368;6.788;2023-07-09T08:09:36;7.43;;;5.00;;
11931;SDS011;6025;51.368;6.788;2023-07-09T08:14:30;8.23;;;4.82;;
11931;SDS011;6025;51.368;6.788;2023-07-09T08:19:21;10.05;;;5.50;;
11931;SDS011;6025;51.368;6.788;2023-07-09T08:24:13;10.02;;;5.30;;
11931;SDS011;6025;51.368;6.788;2023-07-09T08:29:05;7.20;;;4.70;;
11931;SDS011;6025;51.368;6.788;2023-07-09T08:33:58;7.22;;;5.10;;
11931;SDS011;6025;51.368;6.788;2023-07-09T08:38:49;7.20;;;5.07;;
11931;SDS011;6025;51.368;6.788;2023-07-09T08:43:45;6.28;;;4.72;;
11931;SDS011;6025;51.368;6.788;2023-07-09T08:48:42;8.00;;;5.55;;
11931;SDS011;6025;51.368;6.788;2023-07-09T08:53:38;9.02;;;7.60;;
11931;SDS011;6025;51.368;6.788;2023-07-09T08:58:31;8.27;;;5.72;;
11931;SDS011;6025;51.368;6.788;2023-07-09T09:03:30;7.72;;;4.68;;
11931;SDS011;6025;51.368;6.788;2023-07-09T09:08:33;11.93;;;8.10;;
11931;SDS011;6025;51.368;6.788;2023-07-09T09:13:30;10.25;;;8.00;;
11931;SDS011;6025;51.368;6.788;2023-07-09T09:18:22;9.68;;;5.82;;
11931;SDS011;6025;51.368;6.788;2023-07-09T09:23:16;6.38;;;4.50;;
11931;SDS011;6025;51.368;6.788;2023-07-09T09:28:08;5.82;;;4.97;;
11931;SDS011;6025;51.368;6.788;2023-07-09T09:33:00;8.40;;;4.50;;
11931;SDS011;6025;51.368;6.788;2023-07-09T09:37:54;7.32;;;4.70;;
11931;SDS011;6025;51.368;6.788;2023-07-09T09:42:46;8.00;;;4.32;;
11931;SDS011;6025;51.368;6.788;2023-07-09T09:47:39;7.45;;;4.38;;
11931;SDS011;6025;51.368;6.788;2023-07-09T09:52:31;7.07;;;4.38;;
11931;SDS011;6025;51.368;6.788;2023-07-09T09:57:25;8.25;;;4.35;;
11931;SDS011;6025;51.368;6.788;2023-07-09T10:02:17;8.73;;;4.35;;
11931;SDS011;6025;51.368;6.788;2023-07-09T10:07:13;7.43;;;4.28;;
11931;SDS011;6025;51.368;6.788;2023-07-09T10:12:11;7.35;;;4.53;;
11931;SDS011;6025;51.368;6.788;2023-07-09T10:17:09;8.57;;;4.97;;
11931;SDS011;6025;51.368;6.788;2023-07-09T10:22:07;5.13;;;4.18;;
11931;SDS011;6025;51.368;6.788;2023-07-09T10:27:07;6.20;;;4.13;;
11931;SDS011;6025;51.368;6.788;2023-07-09T10:32:01;6.25;;;4.05;;
11931;SDS011;6025;51.368;6.788;2023-07-09T10:37:04;8.05;;;4.10;;
11931;SDS011;6025;51.368;6.788;2023-07-09T10:42:06;8.32;;;4.43;;
11931;SDS011;6025;51.368;6.788;2023-07-09T10:47:09;6.75;;;3.60;;
11931;SDS011;6025;51.368;6.788;2023-07-09T10:52:06;7.07;;;4.28;;
11931;SDS011;6025;51.368;6.788;2023-07-09T10:57:16;5.78;;;4.10;;
11931;SDS011;6025;51.368;6.788;2023-07-09T11:02:15;5.55;;;3.80;;
11931;SDS011;6025;51.368;6.788;2023-07-09T11:07:10;7.28;;;4.15;;
11931;SDS011;6025;51.368;6.788;2023-07-09T11:12:05;5.22;;;3.80;;
11931;SDS011;6025;51.368;6.788;2023-07-09T11:17:01;6.05;;;3.70;;
11931;SDS011;6025;51.368;6.788;2023-07-09T11:21:59;6.35;;;4.18;;
11931;SDS011;6025;51.368;6.788;2023-07-09T11:26:54;9.48;;;3.72;;
11931;SDS011;6025;51.368;6.788;2023-07-09T11:31:46;5.25;;;3.70;;
11931;SDS011;6025;51.368;6.788;2023-07-09T11:36:47;7.50;;;4.30;;
11931;SDS011;6025;51.368;6.788;2023-07-09T11:41:40;5.53;;;3.55;;
11931;SDS011;6025;51.368;6.788;2023-07-09T11:46:32;4.38;;;3.42;;
11931;SDS011;6025;51.368;6.788;2023-07-09T11:51:28;5.78;;;3.58;;
11931;SDS011;6025;51.368;6.788;2023-07-09T11:56:27;5.20;;;3.80;;
11931;SDS011;6025;51.368;6.788;2023-07-09T12:01:20;6.72;;;3.60;;
11931;SDS011;6025;51.368;6.788;2023-07-09T12:06:16;5.97;;;3.80;;
11931;SDS011;6025;51.368;6.788;2023-07-09T12:11:17;5.75;;;3.70;;
11931;SDS011;6025;51.368;6.788;2023-07-09T12:16:20;5.10;;;3.75;;
11931;SDS011;6025;51.368;6.788;2023-07-09T12:21:12;5.07;;;3.60;;
11931;SDS011;6025;51.368;6.788;2023-07-09T12:26:05;5.10;;;3.60;;
11931;SDS011;6025;51.368;6.788;2023-07-09T12:31:01;5.57;;;3.80;;
11931;SDS011;6025;51.368;6.788;2023-07-09T12:35:56;7.05;;;3.85;;
11931;SDS011;6025;51.368;6.788;2023-07-09T12:40:49;9.10;;;3.97;;
11931;SDS011;6025;51.368;6.788;2023-07-09T12:45:41;8.25;;;3.65;;
11931;SDS011;6025;51.368;6.788;2023-07-09T12:50:34;5.53;;;3.88;;
11931;SDS011;6025;51.368;6.788;2023-07-09T12:55:40;8.38;;;3.85;;
11931;SDS011;6025;51.368;6.788;2023-07-09T13:00:33;8.70;;;4.18;;
11931;SDS011;6025;51.368;6.788;2023-07-09T13:05:25;6.65;;;4.15;;
11931;SDS011;6025;51.368;6.788;2023-07-09T13:10:18;8.90;;;4.35;;
11931;SDS011;6025;51.368;6.788;2023-07-09T13:15:24;7.22;;;4.10;;
11931;SDS011;6025;51.368;6.788;2023-07-09T13:20:17;7.13;;;4.35;;
11931;SDS011;6025;51.368;6.788;2023-07-09T13:25:09;7.13;;;4.30;;
11931;SDS011;6025;51.368;6.788;2023-07-09T13:30:01;9.00;;;4.15;;
11931;SDS011;6025;51.368;6.788;2023-07-09T13:34:54;6.65;;;4.53;;
11931;SDS011;6025;51.368;6.788;2023-07-09T13:39:46;10.15;;;7.30;;
11931;SDS011;6025;51.368;6.788;2023-07-09T13:44:37;6.88;;;4.97;;
11931;SDS011;6025;51.368;6.788;2023-07-09T13:49:30;13.93;;;6.95;;
11931;SDS011;6025;51.368;6.788;2023-07-09T13:54:23;9.10;;;5.70;;
11931;SDS011;6025;51.368;6.788;2023-07-09T13:59:17;7.88;;;4.97;;
11931;SDS011;6025;51.368;6.788;2023-07-09T14:04:10;6.43;;;4.38;;
11931;SDS011;6025;51.368;6.788;2023-07-09T14:09:03;8.18;;;4.38;;
11931;SDS011;6025;51.368;6.788;2023-07-09T14:13:57;6.75;;;4.20;;
11931;SDS011;6025;51.368;6.788;2023-07-09T14:18:49;7.53;;;4.38;;
11931;SDS011;6025;51.368;6.788;2023-07-09T14:23:40;9.25;;;4.07;;
11931;SDS011;6025;51.368;6.788;2023-07-09T14:28:32;8.70;;;4.50;;
11931;SDS011;6025;51.368;6.788;2023-07-09T14:33:25;13.38;;;6.20;;
11931;SDS011;6025;51.368;6.788;2023-07-09T14:38:18;23.30;;;9.00;;
11931;SDS011;6025;51.368;6.788;2023-07-09T14:43:10;10.88;;;6.07;;
11931;SDS011;6025;51.368;6.788;2023-07-09T14:48:04;12.68;;;5.93;;
11931;SDS011;6025;51.368;6.788;2023-07-09T14:53:02;7.95;;;5.25;;
11931;SDS011;6025;51.368;6.788;2023-07-09T14:57:54;10.77;;;4.57;;
11931;SDS011;6025;51.368;6.788;2023-07-09T15:02:50;10.23;;;5.07;;
11931;SDS011;6025;51.368;6.788;2023-07-09T15:07:43;7.20;;;6.50;;
11931;SDS011;6025;51.368;6.788;2023-07-09T15:12:36;12.63;;;6.50;;
11931;SDS011;6025;51.368;6.788;2023-07-09T15:17:28;8.52;;;5.93;;
11931;SDS011;6025;51.368;6.788;2023-07-09T15:22:24;6.07;;;4.55;;
11931;SDS011;6025;51.368;6.788;2023-07-09T15:27:19;7.50;;;4.70;;
11931;SDS011;6025;51.368;6.788;2023-07-09T15:32:12;9.10;;;7.25;;
11931;SDS011;6025;51.368;6.788;2023-07-09T15:37:04;8.38;;;5.55;;
11931;SDS011;6025;51.368;6.788;2023-07-09T15:42:04;9.07;;;5.35;;
11931;SDS011;6025;51.368;6.788;2023-07-09T15:46:59;9.38;;;6.05;;
11931;SDS011;6025;51.368;6.788;2023-07-09T15:51:55;7.63;;;5.53;;
11931;SDS011;6025;51.368;6.788;2023-07-09T15:56:47;11.25;;;6.28;;
11931;SDS011;6025;51.368;6.788;2023-07-09T16:01:39;7.38;;;6.13;;
11931;SDS011;6025;51.368;6.788;2023-07-09T16:06:30;9.10;;;6.60;;
11931;SDS011;6025;51.368;6.788;2023-07-09T16:11:25;9.73;;;6.57;;
11931;SDS011;6025;51.368;6.788;2023-07-09T16:16:17;10.15;;;6.22;;
11931;SDS011;6025;51.368;6.788;2023-07-09T16:21:13;10.60;;;6.88;;
11931;SDS011;6025;51.368;6.788;2023-07-09T16:26:12;7.40;;;6.20;;
11931;SDS011;6025;51.368;6.788;2023-07-09T16:31:05;9.63;;;6.50;;
11931;SDS011;6025;51.368;6.788;2023-07-09T16:35:56;9.30;;;6.32;;
11931;SDS011;6025;51.368;6.788;2023-07-09T16:40:48;8.25;;;6.72;;
11931;SDS011;6025;51.368;6.788;2023-07-09T16:45:39;13.27;;;7.28;;
11931;SDS011;6025;51.368;6.788;2023-07-09T16:50:32;10.10;;;7.20;;
11931;SDS011;6025;51.368;6.788;2023-07-09T16:55:25;9.63;;;7.32;;
11931;SDS011;6025;51.368;6.788;2023-07-09T17:00:21;10.63;;;7.57;;
11931;SDS011;6025;51.368;6.788;2023-07-09T17:05:15;11.38;;;7.82;;
11931;SDS011;6025;51.368;6.788;2023-07-09T17:10:09;9.85;;;7.70;;
11931;SDS011;6025;51.368;6.788;2023-07-09T17:15:02;8.30;;;7.40;;
11931;SDS011;6025;51.368;6.788;2023-07-09T17:20:10;11.15;;;7.50;;
11931;SDS011;6025;51.368;6.788;2023-07-09T17:25:04;12.30;;;7.95;;
11931;SDS011;6025;51.368;6.788;2023-07-09T17:30:12;10.50;;;7.57;;
11931;SDS011;6025;51.368;6.788;2023-07-09T17:35:05;9.43;;;7.60;;
11931;SDS011;6025;51.368;6.788;2023-07-09T17:39:57;9.10;;;7.05;;
11931;SDS011;6025;51.368;6.788;2023-07-09T17:44:49;9.73;;;7.07;;
11931;SDS011;6025;51.368;6.788;2023-07-09T17:49:41;9.15;;;6.65;;
11931;SDS011;6025;51.368;6.788;2023-07-09T17:54:33;10.90;;;7.28;;
11931;SDS011;6025;51.368;6.788;2023-07-09T17:59:25;9.73;;;7.65;;
11931;SDS011;6025;51.368;6.788;2023-07-09T18:04:19;9.68;;;7.20;;
11931;SDS011;6025;51.368;6.788;2023-07-09T18:09:11;10.65;;;6.53;;
11931;SDS011;6025;51.368;6.788;2023-07-09T18:14:02;9.18;;;6.53;;
11931;SDS011;6025;51.368;6.788;2023-07-09T18:18:56;10.48;;;6.65;;
11931;SDS011;6025;51.368;6.788;2023-07-09T18:23:53;7.63;;;6.18;;
11931;SDS011;6025;51.368;6.788;2023-07-09T18:28:45;11.02;;;6.80;;
11931;SDS011;6025;51.368;6.788;2023-07-09T18:33:36;8.27;;;6.10;;
11931;SDS011;6025;51.368;6.788;2023-07-09T18:38:28;7.68;;;6.55;;
11931;SDS011;6025;51.368;6.788;2023-07-09T18:43:21;8.98;;;6.78;;
11931;SDS011;6025;51.368;6.788;2023-07-09T18:48:13;8.60;;;7.20;;
11931;SDS011;6025;51.368;6.788;2023-07-09T18:53:07;13.43;;;6.72;;
11931;SDS011;6025;51.368;6.788;2023-07-09T18:58:01;9.43;;;7.28;;
11931;SDS011;6025;51.368;6.788;2023-07-09T19:02:54;9.10;;;7.82;;
11931;SDS011;6025;51.368;6.788;2023-07-09T19:07:46;9.65;;;8.10;;
11931;SDS011;6025;51.368;6.788;2023-07-09T19:12:38;10.40;;;7.57;;
11931;SDS011;6025;51.368;6.788;2023-07-09T19:17:30;9.48;;;7.10;;
11931;SDS011;6025;51.368;6.788;2023-07-09T19:22:23;9.95;;;7.90;;
11931;SDS011;6025;51.368;6.788;2023-07-09T19:27:14;12.68;;;8.88;;
11931;SDS011;6025;51.368;6.788;2023-07-09T19:32:09;12.45;;;8.65;;
11931;SDS011;6025;51.368;6.788;2023-07-09T19:37:05;14.48;;;9.45;;
11931;SDS011;6025;51.368;6.788;2023-07-09T19:42:09;13.50;;;9.07;;
11931;SDS011;6025;51.368;6.788;2023-07-09T19:47:03;12.25;;;10.20;;
11931;SDS011;6025;51.368;6.788;2023-07-09T19:51:56;14.77;;;10.85;;
11931;SDS011;6025;51.368;6.788;2023-07-09T19:56:48;14.73;;;11.18;;
11931;SDS011;6025;51.368;6.788;2023-07-09T20:01:40;15.43;;;12.05;;
11931;SDS011;6025;51.368;6.788;2023-07-09T20:06:32;16.08;;;11.63;;
11931;SDS011;6025;51.368;6.788;2023-07-09T20:11:24;14.57;;;11.40;;
11931;SDS011;6025;51.368;6.788;2023-07-09T20:16:19;14.52;;;12.30;;
11931;SDS011;6025;51.368;6.788;2023-07-09T20:21:16;20.40;;;13.77;;
11931;SDS011;6025;51.368;6.788;2023-07-09T20:26:09;16.35;;;13.18;;
11931;SDS011;6025;51.368;6.788;2023-07-09T20:31:02;15.23;;;13.60;;
11931;SDS011;6025;51.368;6.788;2023-07-09T20:36:06;17.40;;;13.45;;
11931;SDS011;6025;51.368;6.788;2023-07-09T20:40:59;17.15;;;13.57;;
11931;SDS011;6025;51.368;6.788;2023-07-09T20:45:51;15.40;;;13.23;;
11931;SDS011;6025;51.368;6.788;2023-07-09T20:50:42;13.63;;;12.07;;
11931;SDS011;6025;51.368;6.788;2023-07-09T20:55:34;13.15;;;11.25;;
11931;SDS011;6025;51.368;6.788;2023-07-09T21:00:27;12.02;;;10.73;;
11931;SDS011;6025;51.368;6.788;2023-07-09T21:05:19;13.68;;;10.48;;
11931;SDS011;6025;51.368;6.788;2023-07-09T21:10:15;11.27;;;10.15;;
11931;SDS011;6025;51.368;6.788;2023-07-09T21:15:08;14.85;;;10.20;;
11931;SDS011;6025;51.368;6.788;2023-07-09T21:20:04;13.70;;;10.73;;
11931;SDS011;6025;51.368;6.788;2023-07-09T21:25:02;11.57;;;10.32;;
11931;SDS011;6025;51.368;6.788;2023-07-09T21:30:07;14.68;;;11.40;;
11931;SDS011;6025;51.368;6.788;2023-07-09T21:34:59;14.45;;;11.65;;
11931;SDS011;6025;51.368;6.788;2023-07-09T21:39:52;13.23;;;11.23;;
11931;SDS011;6025;51.368;6.788;2023-07-09T21:44:44;18.75;;;11.25;;
11931;SDS011;6025;51.368;6.788;2023-07-09T21:49:37;11.50;;;10.05;;
11931;SDS011;6025;51.368;6.788;2023-07-09T21:54:32;13.13;;;10.82;;
11931;SDS011;6025;51.368;6.788;2023-07-09T21:59:24;14.00;;;10.95;;
11931;SDS011;6025;51.368;6.788;2023-07-09T22:04:17;14.70;;;11.25;;
11931;SDS011;6025;51.368;6.788;2023-07-09T22:09:11;15.25;;;10.90;;
11931;SDS011;6025;51.368;6.788;2023-07-09T22:14:06;17.33;;;11.50;;
11931;SDS011;6025;51.368;6.788;2023-07-09T22:19:00;16.75;;;11.50;;
11931;SDS011;6025;51.368;6.788;2023-07-09T22:23:53;13.68;;;10.63;;
11931;SDS011;6025;51.368;6.788;2023-07-09T22:28:45;13.93;;;11.70;;
11931;SDS011;6025;51.368;6.788;2023-07-09T22:33:39;13.55;;;12.05;;
11931;SDS011;6025;51.368;6.788;2023-07-09T22:38:30;13.10;;;11.05;;
11931;SDS011;6025;51.368;6.788;2023-07-09T22:43:22;14.63;;;11.68;;
11931;SDS011;6025;51.368;6.788;2023-07-09T22:48:13;13.30;;;11.90;;
11931;SDS011;6025;51.368;6.788;2023-07-09T22:53:09;14.05;;;11.50;;
11931;SDS011;6025;51.368;6.788;2023-07-09T22:58:04;13.18;;;11.50;;
11931;SDS011;6025;51.368;6.788;2023-07-09T23:02:57;12.88;;;10.68;;
11931;SDS011;6025;51.368;6.788;2023-07-09T23:07:49;14.77;;;11.93;;
11931;SDS011;6025;51.368;6.788;2023-07-09T23:12:42;13.48;;;12.18;;
11931;SDS011;6025;51.368;6.788;2023-07-09T23:17:34;15.02;;;12.00;;
11931;SDS011;6025;51.368;6.788;2023-07-09T23:22:26;14.77;;;11.10;;
11931;SDS011;6025;51.368;6.788;2023-07-09T23:27:17;13.88;;;10.25;;
11931;SDS011;6025;51.368;6.788;2023-07-09T23:32:10;14.23;;;9.57;;
11931;SDS011;6025;51.368;6.788;2023-07-09T23:37:05;13.85;;;9.07;;
11931;SDS011;6025;51.368;6.788;2023-07-09T23:41:57;12.05;;;8.98;;
11931;SDS011;6025;51.368;6.788;2023-07-09T23:46:48;11.50;;;9.05;;
11931;SDS011;6025;51.368;6.788;2023-07-09T23:51:41;15.65;;;13.00;;
11931;SDS011;6025;51.368;6.788;2023-07-09T23:56:33;17.58;;;13.10;;
